createdAt,value
2022-10-20T00:01:23.243Z,4.27
2022-10-20T00:03:52.113Z,4.80
2022-10-20T00:06:22.375Z,4.67
2022-10-20T00:08:51.033Z,4.57
2022-10-20T00:11:21.106Z,4.50
2022-10-20T00:13:52.136Z,4.30
2022-10-20T00:16:20.670Z,4.23
2022-10-20T00:18:48.756Z,3.80
2022-10-20T00:21:18.980Z,4.20
2022-10-20T00:23:49.678Z,4.20
2022-10-20T00:26:19.561Z,3.77
2022-10-20T00:28:48.004Z,3.90
2022-10-20T00:31:18.755Z,3.50
2022-10-20T00:33:46.841Z,3.73
2022-10-20T00:36:16.946Z,3.50
2022-10-20T00:38:48.383Z,3.80
2022-10-20T00:41:17.684Z,3.70
2022-10-20T00:43:48.138Z,3.80
2022-10-20T00:46:22.850Z,4.23
2022-10-20T00:48:54.927Z,4.20
2022-10-20T00:51:26.162Z,3.70
2022-10-20T00:53:58.389Z,4.20
2022-10-20T00:56:26.350Z,3.90
2022-10-20T00:58:55.000Z,4.13
2022-10-20T01:01:27.659Z,4.20
2022-10-20T01:03:59.135Z,3.60
2022-10-20T01:06:27.129Z,4.43
2022-10-20T01:08:55.926Z,3.97
2022-10-20T01:11:34.266Z,3.90
2022-10-20T01:14:13.831Z,3.77
2022-10-20T01:16:50.931Z,3.93
2022-10-20T01:19:47.537Z,3.80
2022-10-20T01:22:29.659Z,3.37
2022-10-20T01:25:19.147Z,4.23
2022-10-20T01:27:53.918Z,4.13
2022-10-20T01:30:24.194Z,3.60
2022-10-20T01:33:06.538Z,4.70
2022-10-20T01:35:44.959Z,3.80
2022-10-20T01:38:21.564Z,4.90
2022-10-20T01:40:57.203Z,4.93
2022-10-20T01:43:29.864Z,4.07
2022-10-20T01:45:59.877Z,3.60
2022-10-20T01:48:32.691Z,3.30
2022-10-20T01:51:06.130Z,3.77
2022-10-20T01:53:34.092Z,3.43
2022-10-20T01:56:03.310Z,3.57
2022-10-20T01:58:56.537Z,3.30
2022-10-20T02:01:43.185Z,3.40
2022-10-20T02:04:12.078Z,3.30
2022-10-20T02:06:45.586Z,3.70
2022-10-20T02:09:19.142Z,3.67
2022-10-20T02:11:54.175Z,3.40
2022-10-20T02:14:24.947Z,3.50
2022-10-20T02:16:58.227Z,3.13
2022-10-20T02:19:30.782Z,3.50
2022-10-20T02:21:59.342Z,3.37
2022-10-20T02:24:35.152Z,3.50
2022-10-20T02:27:06.951Z,3.50
2022-10-20T02:29:40.558Z,3.07
2022-10-20T02:32:10.904Z,3.20
2022-10-20T02:34:42.279Z,3.13
2022-10-20T02:37:10.731Z,3.40
2022-10-20T02:39:38.806Z,3.50
2022-10-20T02:42:07.660Z,2.93
2022-10-20T02:44:37.050Z,3.40
2022-10-20T02:47:05.439Z,3.50
2022-10-20T02:49:33.323Z,3.60
2022-10-20T02:52:01.346Z,3.67
2022-10-20T02:54:30.085Z,3.80
2022-10-20T02:56:58.230Z,3.73
2022-10-20T02:59:26.133Z,3.50
2022-10-20T03:01:55.489Z,3.60
2022-10-20T03:04:23.667Z,3.47
2022-10-20T03:06:51.672Z,3.40
2022-10-20T03:09:19.643Z,3.40
2022-10-20T03:11:47.571Z,3.30
2022-10-20T03:14:15.699Z,3.37
2022-10-20T03:16:43.607Z,3.20
2022-10-20T03:19:13.156Z,3.33
2022-10-20T03:21:41.017Z,3.20
2022-10-20T03:24:08.926Z,3.40
2022-10-20T03:26:37.416Z,3.30
2022-10-20T03:29:05.813Z,3.30
2022-10-20T03:31:35.345Z,3.30
2022-10-20T03:34:03.440Z,3.00
2022-10-20T03:36:35.338Z,3.60
2022-10-20T03:39:03.331Z,3.40
2022-10-20T03:41:31.408Z,3.70
2022-10-20T03:43:59.274Z,3.40
2022-10-20T03:46:27.449Z,3.80
2022-10-20T03:48:55.323Z,3.73
2022-10-20T03:51:23.678Z,3.60
2022-10-20T03:53:52.942Z,3.37
2022-10-20T03:56:21.952Z,3.40
2022-10-20T03:58:50.205Z,3.80
2022-10-20T04:01:22.097Z,3.30
2022-10-20T04:03:50.420Z,3.37
2022-10-20T04:06:18.496Z,3.40
2022-10-20T04:08:46.558Z,3.40
2022-10-20T04:11:15.864Z,3.40
2022-10-20T04:13:43.715Z,3.27
2022-10-20T04:16:11.801Z,3.27
2022-10-20T04:18:39.827Z,3.30
2022-10-20T04:21:10.217Z,2.83
2022-10-20T04:23:38.131Z,3.37
2022-10-20T04:26:10.719Z,3.00
2022-10-20T04:28:40.077Z,3.07
2022-10-20T04:31:08.934Z,3.33
2022-10-20T04:33:37.187Z,3.20
2022-10-20T04:36:09.247Z,3.33
2022-10-20T04:38:37.585Z,3.10
2022-10-20T04:41:06.257Z,3.00
2022-10-20T04:43:37.023Z,3.10
2022-10-20T04:46:08.797Z,3.20
2022-10-20T04:48:37.275Z,2.83
2022-10-20T04:51:06.835Z,3.00
2022-10-20T04:53:34.949Z,3.60
2022-10-20T04:56:06.778Z,3.23
2022-10-20T04:58:35.773Z,3.10
2022-10-20T05:01:09.491Z,3.30
2022-10-20T05:03:38.475Z,3.00
2022-10-20T05:06:11.044Z,3.00
2022-10-20T05:08:39.546Z,3.00
2022-10-20T05:11:08.100Z,2.90
2022-10-20T05:13:36.080Z,2.93
2022-10-20T05:16:09.342Z,3.30
2022-10-20T05:18:37.595Z,3.20
2022-10-20T05:21:10.442Z,2.83
2022-10-20T05:23:39.526Z,3.00
2022-10-20T05:26:11.982Z,3.10
2022-10-20T05:28:40.367Z,3.13
2022-10-20T05:31:10.168Z,2.97
2022-10-20T05:33:44.718Z,3.03
2022-10-20T05:36:18.127Z,2.90
2022-10-20T05:38:48.989Z,2.83
2022-10-20T05:41:18.885Z,2.90
2022-10-20T05:43:50.100Z,2.70
2022-10-20T05:46:22.462Z,2.70
2022-10-20T05:48:53.708Z,2.87
2022-10-20T05:51:24.642Z,2.90
2022-10-20T05:53:54.864Z,2.90
2022-10-20T05:56:23.718Z,3.13
2022-10-20T05:58:51.630Z,3.53
2022-10-20T06:01:23.523Z,3.00
2022-10-20T06:03:54.582Z,2.73
2022-10-20T06:06:24.673Z,2.80
2022-10-20T06:08:56.615Z,2.77
2022-10-20T06:11:25.316Z,3.07
2022-10-20T06:13:53.692Z,3.33
2022-10-20T06:16:23.303Z,2.83
2022-10-20T06:18:52.792Z,3.10
2022-10-20T06:21:23.371Z,2.83
2022-10-20T06:23:51.688Z,2.90
2022-10-20T06:26:21.347Z,2.90
2022-10-20T06:28:50.831Z,2.70
2022-10-20T06:31:20.185Z,2.83
2022-10-20T06:33:49.216Z,2.57
2022-10-20T06:36:19.844Z,2.83
2022-10-20T06:38:49.588Z,2.80
2022-10-20T06:41:19.011Z,2.77
2022-10-20T06:43:46.976Z,2.83
2022-10-20T06:46:18.381Z,3.13
2022-10-20T06:48:46.754Z,3.23
2022-10-20T06:51:16.718Z,2.97
2022-10-20T06:53:47.082Z,2.90
2022-10-20T06:56:16.906Z,2.63
2022-10-20T06:58:49.258Z,2.73
2022-10-20T07:01:19.757Z,2.70
2022-10-20T07:03:49.231Z,2.87
2022-10-20T07:06:19.063Z,2.80
2022-10-20T07:08:50.998Z,2.90
2022-10-20T07:11:20.611Z,2.97
2022-10-20T07:13:49.519Z,3.03
2022-10-20T07:16:19.507Z,3.60
2022-10-20T07:18:47.936Z,3.20
2022-10-20T07:21:17.687Z,3.20
2022-10-20T07:23:46.595Z,3.50
2022-10-20T07:26:17.963Z,3.10
2022-10-20T07:28:50.820Z,3.03
2022-10-20T07:31:22.885Z,3.03
2022-10-20T07:34:07.398Z,3.50
2022-10-20T07:36:42.519Z,3.50
2022-10-20T07:39:13.202Z,2.90
2022-10-20T07:41:44.154Z,3.00
2022-10-20T07:44:12.159Z,2.87
2022-10-20T07:46:42.050Z,3.30
2022-10-20T07:51:57.958Z,2.90
2022-10-20T07:54:28.033Z,3.03
2022-10-20T07:56:57.286Z,3.60
2022-10-20T07:59:25.525Z,3.10
2022-10-20T08:01:58.726Z,3.30
2022-10-20T08:04:27.926Z,3.20
2022-10-20T08:06:55.909Z,3.10
2022-10-20T08:09:23.847Z,3.40
2022-10-20T08:11:55.292Z,3.80
2022-10-20T08:14:27.317Z,3.03
2022-10-20T08:17:03.351Z,3.07
2022-10-20T08:19:33.588Z,3.20
2022-10-20T08:22:01.714Z,3.33
2022-10-20T08:24:29.638Z,3.40
2022-10-20T08:26:57.549Z,3.20
2022-10-20T08:29:26.878Z,3.10
2022-10-20T08:31:54.902Z,3.30
2022-10-20T08:34:22.777Z,3.53
2022-10-20T08:36:50.667Z,3.40
2022-10-20T08:39:18.585Z,3.63
2022-10-20T08:42:06.979Z,3.37
2022-10-20T08:44:39.007Z,3.57
2022-10-20T08:47:17.705Z,3.30
2022-10-20T08:49:49.107Z,3.10
2022-10-20T08:52:18.979Z,3.30
2022-10-20T08:54:49.659Z,3.67
2022-10-20T08:57:23.654Z,3.60
2022-10-20T08:59:55.432Z,3.07
2022-10-20T09:02:24.086Z,3.37
2022-10-20T09:04:56.411Z,3.97
2022-10-20T09:07:29.418Z,3.73
2022-10-20T09:10:05.827Z,4.03
2022-10-20T09:12:33.848Z,3.53
2022-10-20T09:15:04.483Z,3.37
2022-10-20T09:17:33.144Z,3.67
2022-10-20T09:20:02.873Z,3.90
2022-10-20T09:22:35.821Z,4.03
2022-10-20T09:25:05.525Z,4.30
2022-10-20T09:27:39.994Z,3.77
2022-10-20T09:30:21.410Z,4.03
2022-10-20T09:32:50.542Z,3.70
2022-10-20T09:35:24.987Z,3.70
2022-10-20T09:37:58.058Z,4.33
2022-10-20T09:40:27.738Z,4.10
2022-10-20T09:42:58.548Z,4.50
2022-10-20T09:45:30.218Z,4.10
2022-10-20T09:48:03.710Z,4.20
2022-10-20T09:50:36.023Z,3.90
2022-10-20T09:53:07.960Z,4.07
2022-10-20T09:55:42.277Z,3.83
2022-10-20T09:58:21.048Z,3.80
2022-10-20T10:00:59.211Z,3.80
2022-10-20T10:03:28.091Z,3.60
2022-10-20T10:05:57.215Z,3.67
2022-10-20T10:08:27.662Z,3.60
2022-10-20T10:11:01.632Z,3.60
2022-10-20T10:13:32.018Z,4.00
2022-10-20T10:16:05.111Z,4.20
2022-10-20T10:18:33.012Z,4.17
2022-10-20T10:21:04.342Z,4.20
2022-10-20T10:23:36.381Z,3.80
2022-10-20T10:26:08.595Z,3.90
2022-10-20T10:28:38.782Z,3.87
2022-10-20T10:31:21.762Z,4.20
2022-10-20T10:33:52.034Z,4.07
2022-10-20T10:36:30.983Z,3.43
2022-10-20T10:38:59.842Z,3.97
2022-10-20T10:41:54.856Z,4.10
2022-10-20T10:44:39.094Z,4.50
2022-10-20T10:47:24.880Z,4.23
2022-10-20T10:50:01.385Z,3.80
2022-10-20T10:52:40.124Z,3.80
2022-10-20T10:55:43.814Z,4.07
2022-10-20T10:58:18.004Z,3.50
2022-10-20T11:00:55.057Z,3.87
2022-10-20T11:03:43.937Z,3.93
2022-10-20T11:06:23.381Z,3.97
2022-10-20T11:09:04.123Z,4.20
2022-10-20T11:11:44.518Z,3.70
2022-10-20T11:14:23.132Z,3.53
2022-10-20T11:17:01.652Z,3.97
2022-10-20T11:19:45.398Z,3.70
2022-10-20T11:22:25.432Z,3.80
2022-10-20T11:25:00.652Z,3.97
2022-10-20T11:27:32.238Z,4.20
2022-10-20T11:30:09.130Z,3.60
2022-10-20T11:32:40.968Z,3.90
2022-10-20T11:35:25.433Z,3.53
2022-10-20T11:37:58.137Z,3.80
2022-10-20T11:40:30.063Z,3.40
2022-10-20T11:43:08.890Z,3.77
2022-10-20T11:45:46.738Z,3.83
2022-10-20T11:48:22.391Z,3.67
2022-10-20T11:51:02.795Z,3.60
2022-10-20T11:53:40.310Z,3.60
2022-10-20T11:56:33.078Z,3.40
2022-10-20T11:59:23.693Z,2.93
2022-10-20T12:02:29.795Z,3.27
2022-10-20T12:05:16.628Z,3.50
2022-10-20T12:08:36.203Z,3.70
2022-10-20T12:11:12.598Z,3.70
2022-10-20T12:13:50.112Z,3.60
2022-10-20T12:17:02.847Z,3.97
2022-10-20T12:19:35.637Z,3.50
2022-10-20T12:22:07.123Z,3.20
2022-10-20T12:24:38.893Z,2.77
2022-10-20T12:27:19.441Z,2.90
2022-10-20T12:29:59.848Z,2.40
2022-10-20T12:33:00.905Z,1.67
2022-10-20T12:35:53.934Z,1.20
2022-10-20T12:38:26.084Z,1.10
2022-10-20T12:40:58.985Z,1.03
2022-10-20T12:43:37.812Z,0.80
2022-10-20T12:46:12.826Z,0.70
2022-10-20T12:48:47.175Z,0.90
2022-10-20T12:51:22.817Z,0.90
2022-10-20T12:54:03.956Z,1.20
2022-10-20T12:56:39.831Z,1.20
2022-10-20T12:59:47.755Z,1.20
2022-10-20T13:02:51.111Z,1.10
2022-10-20T13:05:45.203Z,1.30
2022-10-20T13:08:37.476Z,1.50
2022-10-20T13:11:46.099Z,1.50
2022-10-20T13:14:35.579Z,1.37
2022-10-20T13:17:13.960Z,1.40
2022-10-20T13:19:50.422Z,1.30
2022-10-20T13:22:50.993Z,1.60
2022-10-20T13:25:33.782Z,1.43
2022-10-20T13:28:21.256Z,1.50
2022-10-20T13:31:03.681Z,1.40
2022-10-20T13:34:02.794Z,1.50
2022-10-20T13:36:48.699Z,1.40
2022-10-20T13:39:21.809Z,1.50
2022-10-20T13:41:57.245Z,1.50
2022-10-20T13:44:35.039Z,1.67
2022-10-20T13:47:19.235Z,1.50
2022-10-20T13:50:00.078Z,1.50
2022-10-20T13:52:32.236Z,1.40
2022-10-20T13:55:01.341Z,1.50
2022-10-20T13:57:30.834Z,1.50
2022-10-20T14:00:02.585Z,1.53
2022-10-20T14:02:33.761Z,1.67
2022-10-20T14:05:12.320Z,1.60
2022-10-20T14:07:42.071Z,1.80
2022-10-20T14:10:22.610Z,1.60
2022-10-20T14:12:50.847Z,1.63
2022-10-20T14:15:25.277Z,1.73
2022-10-20T14:17:58.136Z,1.67
2022-10-20T14:20:30.285Z,1.73
2022-10-20T14:23:00.547Z,1.80
2022-10-20T14:25:30.740Z,1.63
2022-10-20T14:28:01.055Z,1.50
2022-10-20T14:30:34.573Z,1.57
2022-10-20T14:33:06.442Z,1.50
2022-10-20T14:35:42.379Z,1.80
2022-10-20T14:38:19.615Z,1.60
2022-10-20T14:40:52.598Z,1.73
2022-10-20T14:43:22.775Z,1.67
2022-10-20T14:46:00.309Z,1.53
2022-10-20T14:48:34.355Z,1.70
2022-10-20T14:51:02.665Z,1.60
2022-10-20T14:53:34.608Z,1.40
2022-10-20T14:56:03.918Z,1.50
2022-10-20T14:58:38.417Z,1.50
2022-10-20T15:01:22.904Z,1.40
2022-10-20T15:06:37.343Z,1.60
2022-10-20T15:09:05.513Z,1.63
2022-10-20T15:11:33.452Z,1.50
2022-10-20T15:14:01.979Z,1.70
2022-10-20T15:16:40.561Z,1.60
2022-10-20T15:19:34.676Z,1.50
2022-10-20T15:22:11.587Z,1.47
2022-10-20T15:24:40.291Z,1.40
2022-10-20T15:27:15.233Z,1.43
2022-10-20T15:29:50.009Z,1.50
2022-10-20T15:32:19.804Z,1.40
2022-10-20T15:34:47.658Z,1.47
2022-10-20T15:37:15.564Z,1.40
2022-10-20T15:39:44.812Z,1.40
2022-10-20T15:42:13.075Z,1.40
2022-10-20T15:44:43.994Z,1.50
2022-10-20T15:47:12.289Z,1.40
2022-10-20T15:49:41.577Z,1.50
2022-10-20T15:52:13.485Z,1.60
2022-10-20T15:54:41.640Z,1.50
2022-10-20T15:57:09.560Z,1.40
2022-10-20T15:59:37.562Z,1.50
2022-10-20T16:02:12.491Z,1.60
2022-10-20T16:04:41.863Z,1.47
2022-10-20T16:07:09.819Z,1.53
2022-10-20T16:09:37.760Z,1.50
2022-10-20T16:12:06.124Z,1.57
2022-10-20T16:14:34.052Z,1.60
2022-10-20T16:17:01.972Z,1.70
2022-10-20T16:19:29.926Z,1.40
2022-10-20T16:21:59.253Z,1.70
2022-10-20T16:24:27.276Z,1.70
2022-10-20T16:26:55.220Z,1.40
2022-10-20T16:29:23.241Z,1.50
2022-10-20T16:31:51.088Z,1.50
2022-10-20T16:34:18.955Z,1.60
2022-10-20T16:36:46.979Z,1.60
2022-10-20T16:39:17.335Z,1.73
2022-10-20T16:41:45.462Z,1.70
2022-10-20T16:44:13.321Z,1.50
2022-10-20T16:46:41.402Z,1.37
2022-10-20T16:49:09.377Z,1.40
2022-10-20T16:51:37.366Z,1.37
2022-10-20T16:54:05.870Z,1.50
2022-10-20T16:56:35.875Z,1.30
2022-10-20T16:59:03.862Z,1.50
2022-10-20T17:01:31.981Z,1.50
2022-10-20T17:04:00.049Z,1.40
2022-10-20T17:06:28.155Z,1.60
2022-10-20T17:08:58.757Z,1.30
2022-10-20T17:11:28.827Z,1.33
2022-10-20T17:13:59.687Z,1.40
2022-10-20T17:16:32.950Z,1.40
2022-10-20T17:19:02.293Z,1.40
2022-10-20T17:21:31.512Z,1.30
2022-10-20T17:23:59.502Z,1.40
2022-10-20T17:26:30.367Z,1.40
2022-10-20T17:29:01.931Z,1.10
2022-10-20T17:31:30.571Z,1.17
2022-10-20T17:34:01.373Z,1.03
2022-10-20T17:36:30.251Z,1.10
2022-10-20T17:39:00.312Z,1.00
2022-10-20T17:41:31.617Z,1.00
2022-10-20T17:44:02.355Z,1.03
2022-10-20T17:46:30.301Z,1.10
2022-10-20T17:48:58.332Z,1.10
2022-10-20T17:51:30.348Z,1.20
2022-10-20T17:54:02.019Z,1.23
2022-10-20T17:56:32.038Z,1.00
2022-10-20T17:59:08.799Z,0.93
2022-10-20T18:01:41.866Z,0.90
2022-10-20T18:04:18.878Z,0.90
2022-10-20T18:06:48.042Z,0.93
2022-10-20T18:09:20.578Z,0.83
2022-10-20T18:11:51.301Z,0.60
2022-10-20T18:14:21.067Z,0.70
2022-10-20T18:16:49.241Z,0.70
2022-10-20T18:19:19.790Z,0.70
2022-10-20T18:21:48.339Z,0.80
2022-10-20T18:24:17.981Z,0.70
2022-10-20T18:26:46.374Z,0.77
2022-10-20T18:29:16.848Z,0.60
2022-10-20T18:31:47.826Z,0.70
2022-10-20T18:34:20.756Z,0.70
2022-10-20T18:36:49.743Z,0.60
2022-10-20T18:39:19.853Z,0.60
2022-10-20T18:41:47.784Z,0.90
2022-10-20T18:44:17.986Z,0.60
2022-10-20T18:46:48.157Z,0.70
2022-10-20T18:49:20.506Z,0.67
2022-10-20T18:51:49.975Z,0.60
2022-10-20T18:54:19.330Z,0.77
2022-10-20T18:56:47.406Z,0.80
2022-10-20T18:59:17.320Z,0.80
2022-10-20T19:01:45.505Z,0.70
2022-10-20T19:04:14.987Z,0.70
2022-10-20T19:06:44.573Z,0.80
2022-10-20T19:09:16.979Z,0.80
2022-10-20T19:11:46.156Z,0.63
2022-10-20T19:14:14.653Z,0.93
2022-10-20T19:16:46.112Z,0.70
2022-10-20T19:19:15.833Z,0.80
2022-10-20T19:21:43.795Z,0.80
2022-10-20T19:24:15.844Z,0.80
2022-10-20T19:26:52.704Z,0.90
2022-10-20T19:29:30.652Z,1.10
2022-10-20T19:32:00.617Z,1.00
2022-10-20T19:34:32.810Z,1.00
2022-10-20T19:37:01.253Z,1.00
2022-10-20T19:39:32.130Z,0.97
2022-10-20T19:42:07.084Z,0.90
2022-10-20T19:44:35.377Z,1.10
2022-10-20T19:47:04.126Z,1.30
2022-10-20T19:49:33.692Z,1.40
2022-10-20T19:52:01.730Z,1.60
2022-10-20T19:54:30.183Z,1.60
2022-10-20T19:56:58.332Z,1.50
2022-10-20T19:59:26.367Z,1.70
2022-10-20T20:01:54.390Z,1.80
2022-10-20T20:04:22.855Z,1.83
2022-10-20T20:06:52.463Z,1.80
2022-10-20T20:09:20.567Z,1.50
2022-10-20T20:11:48.853Z,1.70
2022-10-20T20:14:20.020Z,1.60
2022-10-20T20:16:48.917Z,1.83
2022-10-20T20:19:20.774Z,2.00
2022-10-20T20:21:48.691Z,1.90
2022-10-20T20:24:18.147Z,2.10
2022-10-20T20:26:48.098Z,2.30
2022-10-20T20:29:16.623Z,1.90
2022-10-20T20:31:45.049Z,2.30
2022-10-20T20:34:13.018Z,2.30
2022-10-20T20:36:40.893Z,2.00
2022-10-20T20:39:08.992Z,2.00
2022-10-20T20:41:38.490Z,2.50
2022-10-20T20:44:08.435Z,2.13
2022-10-20T20:46:37.232Z,2.40
2022-10-20T20:49:05.641Z,2.30
2022-10-20T20:51:34.006Z,2.70
2022-10-20T20:54:04.930Z,2.70
2022-10-20T20:56:33.460Z,2.50
2022-10-20T20:59:03.435Z,2.60
2022-10-20T21:01:32.282Z,2.23
2022-10-20T21:04:02.177Z,3.07
2022-10-20T21:06:49.770Z,2.33
2022-10-20T21:09:19.372Z,2.80
2022-10-20T21:11:49.061Z,2.50
2022-10-20T21:14:18.666Z,2.80
2022-10-20T21:16:47.034Z,2.60
2022-10-20T21:19:16.995Z,2.67
2022-10-20T21:21:50.229Z,2.77
2022-10-20T21:24:19.618Z,2.50
2022-10-20T21:26:48.925Z,2.83
2022-10-20T21:29:18.638Z,2.80
2022-10-20T21:31:46.635Z,3.23
2022-10-20T21:34:14.680Z,3.00
2022-10-20T21:36:42.741Z,2.60
2022-10-20T21:39:16.933Z,2.80
2022-10-20T21:41:46.588Z,2.90
2022-10-20T21:44:16.007Z,2.70
2022-10-20T21:46:49.313Z,2.60
2022-10-20T21:49:19.541Z,2.40
2022-10-20T21:51:49.896Z,2.60
2022-10-20T21:56:50.287Z,2.80
2022-10-20T21:59:20.631Z,2.40
2022-10-20T22:01:50.394Z,2.60
2022-10-20T22:04:20.332Z,2.40
2022-10-20T22:06:49.183Z,2.37
2022-10-20T22:09:17.818Z,2.50
2022-10-20T22:11:47.345Z,2.60
2022-10-20T22:14:15.383Z,2.83
2022-10-20T22:16:51.178Z,2.40
2022-10-20T22:19:21.507Z,2.80
2022-10-20T22:21:51.306Z,3.20
2022-10-20T22:24:21.103Z,2.60
2022-10-20T22:26:51.604Z,2.60
2022-10-20T22:29:20.178Z,2.67
2022-10-20T22:31:48.289Z,2.90
2022-10-20T22:34:18.006Z,2.50
2022-10-20T22:36:48.865Z,2.63
2022-10-20T22:39:20.164Z,2.70
2022-10-20T22:41:48.202Z,2.80
2022-10-20T22:44:16.129Z,2.43
2022-10-20T22:46:44.168Z,2.67
2022-10-20T22:49:13.579Z,2.70
2022-10-20T22:51:43.157Z,2.57
2022-10-20T22:54:11.616Z,2.77
2022-10-20T22:56:43.553Z,3.00
2022-10-20T22:59:11.498Z,3.13
2022-10-20T23:01:39.525Z,3.20
2022-10-20T23:04:07.536Z,3.33
2022-10-20T23:06:35.627Z,2.80
2022-10-20T23:09:06.000Z,3.30
2022-10-20T23:11:36.350Z,3.17
2022-10-20T23:14:07.560Z,2.90
2022-10-20T23:16:35.568Z,3.40
2022-10-20T23:19:05.584Z,2.83
2022-10-20T23:21:33.683Z,3.27
2022-10-20T23:24:02.168Z,2.90
2022-10-20T23:26:31.708Z,2.73
2022-10-20T23:29:06.978Z,3.30
2022-10-20T23:31:35.291Z,3.50
2022-10-20T23:34:03.426Z,3.20
2022-10-20T23:36:34.251Z,3.07
2022-10-20T23:39:05.035Z,3.30
2022-10-20T23:41:34.654Z,3.43
2022-10-20T23:44:03.662Z,3.30
2022-10-20T23:46:33.647Z,3.53
2022-10-20T23:49:01.626Z,3.30
2022-10-20T23:51:29.895Z,3.40
2022-10-20T23:53:57.890Z,3.40
2022-10-20T23:56:25.905Z,3.83
2022-10-20T23:58:55.311Z,3.63
